createdAt,value
2022-12-04T00:01:44.176Z,9.77
2022-12-04T00:04:11.409Z,7.00
2022-12-04T00:06:38.071Z,10.77
2022-12-04T00:09:05.847Z,9.75
2022-12-04T00:11:36.313Z,8.70
2022-12-04T00:14:06.955Z,10.68
2022-12-04T00:16:35.264Z,10.10
2022-12-04T00:19:02.023Z,9.50
2022-12-04T00:21:28.689Z,9.52
2022-12-04T00:23:55.452Z,9.25
2022-12-04T00:26:25.524Z,10.45
2022-12-04T00:28:52.747Z,9.75
2022-12-04T00:31:25.125Z,9.38
2022-12-04T00:33:53.146Z,9.32
2022-12-04T00:36:22.041Z,9.23
2022-12-04T00:38:49.194Z,9.15
2022-12-04T00:41:18.699Z,9.02
2022-12-04T00:43:48.167Z,9.20
2022-12-04T00:46:15.979Z,9.40
2022-12-04T00:48:43.451Z,9.20
2022-12-04T00:51:24.960Z,9.02
2022-12-04T00:53:52.626Z,9.88
2022-12-04T00:56:23.094Z,8.82
2022-12-04T00:58:52.899Z,9.80
2022-12-04T01:01:21.488Z,9.68
2022-12-04T01:03:48.967Z,8.75
2022-12-04T01:06:30.925Z,9.75
2022-12-04T01:08:58.906Z,10.02
2022-12-04T01:11:26.866Z,9.70
2022-12-04T01:13:53.862Z,9.52
2022-12-04T01:16:27.048Z,10.07
2022-12-04T01:18:55.172Z,9.90
2022-12-04T01:21:22.716Z,10.32
2022-12-04T01:23:49.538Z,10.55
2022-12-04T01:26:16.254Z,9.52
2022-12-04T01:28:43.310Z,10.60
2022-12-04T01:31:13.638Z,10.35
2022-12-04T01:33:41.240Z,9.50
2022-12-04T01:36:15.448Z,9.85
2022-12-04T01:38:42.241Z,10.60
2022-12-04T01:41:10.872Z,9.77
2022-12-04T01:43:38.882Z,10.60
2022-12-04T01:46:06.893Z,10.30
2022-12-04T01:48:38.357Z,9.68
2022-12-04T01:51:15.529Z,10.80
2022-12-04T01:53:46.481Z,10.10
2022-12-04T01:56:14.797Z,10.57
2022-12-04T01:58:51.576Z,11.52
2022-12-04T02:01:18.971Z,10.55
2022-12-04T02:03:45.850Z,10.60
2022-12-04T02:06:12.658Z,10.85
2022-12-04T02:08:39.719Z,11.60
2022-12-04T02:11:19.924Z,11.63
2022-12-04T02:14:08.165Z,10.90
2022-12-04T02:17:02.132Z,10.68
2022-12-04T02:19:41.067Z,10.70
2022-12-04T02:22:24.788Z,11.20
2022-12-04T02:25:13.269Z,11.30
2022-12-04T02:27:40.955Z,11.43
2022-12-04T02:30:11.596Z,11.85
2022-12-04T02:32:57.201Z,12.65
2022-12-04T02:35:33.567Z,11.00
2022-12-04T02:38:11.059Z,11.75
2022-12-04T02:41:03.979Z,10.73
2022-12-04T02:43:35.920Z,11.88
2022-12-04T02:46:09.531Z,12.05
2022-12-04T02:48:41.263Z,13.02
2022-12-04T02:51:13.672Z,12.35
2022-12-04T02:53:55.115Z,12.95
2022-12-04T02:56:28.554Z,13.13
2022-12-04T02:58:59.883Z,12.88
2022-12-04T03:01:33.162Z,12.40
2022-12-04T03:04:05.592Z,13.32
2022-12-04T03:06:36.045Z,11.98
2022-12-04T03:09:11.030Z,13.48
2022-12-04T03:11:40.653Z,12.48
2022-12-04T03:14:40.514Z,13.30
2022-12-04T03:17:57.467Z,12.80
2022-12-04T03:20:51.084Z,13.20
2022-12-04T03:23:36.818Z,12.48
2022-12-04T03:26:13.031Z,12.35
2022-12-04T03:28:50.958Z,12.27
2022-12-04T03:31:32.802Z,12.80
2022-12-04T03:34:27.097Z,12.75
2022-12-04T03:37:08.724Z,12.35
2022-12-04T03:39:51.493Z,12.68
2022-12-04T03:42:32.566Z,12.23
2022-12-04T03:45:37.240Z,13.35
2022-12-04T03:48:49.921Z,12.43
2022-12-04T03:52:11.011Z,13.00
2022-12-04T03:55:04.437Z,13.40
2022-12-04T03:57:52.641Z,11.82
2022-12-04T04:00:52.354Z,11.55
2022-12-04T04:06:33.432Z,12.20
2022-12-04T04:09:25.071Z,11.63
2022-12-04T04:12:47.471Z,11.65
2022-12-04T04:15:56.870Z,11.52
2022-12-04T04:18:49.781Z,12.10
2022-12-04T04:21:46.973Z,14.35
2022-12-04T04:24:34.462Z,12.43
2022-12-04T04:27:14.995Z,12.63
2022-12-04T04:29:52.544Z,12.00
2022-12-04T04:32:20.745Z,11.20
2022-12-04T04:35:17.871Z,11.88
2022-12-04T04:38:19.027Z,11.52
2022-12-04T04:41:52.071Z,11.90
2022-12-04T04:44:48.597Z,10.73
2022-12-04T04:47:43.572Z,11.13
2022-12-04T04:50:19.385Z,10.27
2022-12-04T04:52:58.780Z,9.88
2022-12-04T04:55:49.299Z,9.93
2022-12-04T04:58:23.828Z,9.07
2022-12-04T05:01:14.147Z,10.05
2022-12-04T05:03:47.257Z,10.05
2022-12-04T05:06:28.949Z,8.75
2022-12-04T05:11:50.762Z,7.72
2022-12-04T05:14:40.914Z,8.80
2022-12-04T05:17:29.206Z,8.98
2022-12-04T05:20:04.017Z,9.23
2022-12-04T05:22:42.136Z,8.77
2022-12-04T05:25:22.089Z,8.35
2022-12-04T05:28:07.380Z,8.98
2022-12-04T05:31:06.722Z,8.63
2022-12-04T05:33:46.363Z,8.77
2022-12-04T05:36:18.563Z,8.27
2022-12-04T05:39:04.825Z,9.15
2022-12-04T05:41:50.198Z,8.43
2022-12-04T05:44:26.693Z,8.93
2022-12-04T05:47:08.843Z,8.90
2022-12-04T05:49:48.446Z,7.70
2022-12-04T05:52:34.385Z,8.90
2022-12-04T05:55:06.986Z,8.13
2022-12-04T05:57:51.793Z,8.57
2022-12-04T06:00:31.684Z,9.30
2022-12-04T06:03:11.036Z,7.97
2022-12-04T06:05:44.909Z,7.57
2022-12-04T06:08:14.732Z,8.07
2022-12-04T06:10:49.721Z,8.68
2022-12-04T06:13:23.691Z,8.93
2022-12-04T06:15:52.332Z,7.07
2022-12-04T06:18:22.663Z,7.97
2022-12-04T06:21:00.429Z,7.50
2022-12-04T06:23:27.771Z,7.38
2022-12-04T06:26:00.867Z,7.38
2022-12-04T06:28:36.676Z,8.65
2022-12-04T06:31:24.227Z,8.30
2022-12-04T06:34:12.299Z,7.70
2022-12-04T06:36:46.453Z,6.45
2022-12-04T06:39:34.036Z,8.10
2022-12-04T06:42:15.156Z,7.60
2022-12-04T06:45:08.367Z,8.05
2022-12-04T06:47:43.824Z,7.90
2022-12-04T06:50:25.663Z,7.13
2022-12-04T06:56:13.490Z,7.10
2022-12-04T06:58:48.195Z,7.70
2022-12-04T07:01:44.798Z,7.13
2022-12-04T07:04:15.172Z,7.32
2022-12-04T07:07:02.692Z,7.63
2022-12-04T07:09:46.999Z,7.55
2022-12-04T07:12:47.949Z,7.55
2022-12-04T07:15:33.267Z,7.97
2022-12-04T07:18:07.994Z,7.45
2022-12-04T07:20:51.037Z,7.07
2022-12-04T07:23:58.018Z,6.97
2022-12-04T07:26:55.915Z,7.18
2022-12-04T07:29:38.825Z,7.32
2022-12-04T07:32:22.886Z,7.57
2022-12-04T07:34:54.468Z,6.35
2022-12-04T07:37:33.143Z,7.50
2022-12-04T07:40:00.550Z,8.00
2022-12-04T07:42:29.948Z,7.43
2022-12-04T07:44:57.730Z,7.28
2022-12-04T07:47:39.750Z,7.38
2022-12-04T07:50:30.185Z,18.85
2022-12-04T07:56:13.671Z,6.85
2022-12-04T07:59:18.382Z,6.32
2022-12-04T08:02:09.190Z,6.25
2022-12-04T08:04:46.648Z,6.72
2022-12-04T08:07:36.219Z,7.53
2022-12-04T08:10:15.358Z,6.70
2022-12-04T08:12:50.858Z,6.50
2022-12-04T08:15:21.828Z,6.90
2022-12-04T08:17:51.152Z,6.28
2022-12-04T08:20:36.294Z,6.57
2022-12-04T08:23:10.263Z,6.78
2022-12-04T08:25:43.533Z,7.47
2022-12-04T08:28:14.400Z,7.53
2022-12-04T08:30:58.211Z,7.25
2022-12-04T08:33:49.062Z,7.47
2022-12-04T08:36:42.053Z,7.43
2022-12-04T08:39:16.241Z,7.32
2022-12-04T08:41:56.788Z,7.68
2022-12-04T08:44:32.946Z,7.63
2022-12-04T08:47:03.407Z,8.23
2022-12-04T08:49:45.967Z,8.23
2022-12-04T08:52:20.815Z,7.95
2022-12-04T08:54:50.945Z,7.78
2022-12-04T08:57:30.891Z,7.57
2022-12-04T09:00:05.851Z,7.90
2022-12-04T09:02:56.515Z,7.72
2022-12-04T09:05:30.202Z,7.95
2022-12-04T09:08:07.662Z,7.60
2022-12-04T09:13:17.095Z,7.80
2022-12-04T09:15:44.659Z,7.53
2022-12-04T09:18:14.032Z,6.40
2022-12-04T09:20:44.039Z,7.30
2022-12-04T09:23:11.449Z,7.60
2022-12-04T09:25:40.964Z,7.13
2022-12-04T09:28:07.900Z,7.90
2022-12-04T09:30:37.930Z,7.50
2022-12-04T09:33:14.245Z,7.40
2022-12-04T09:35:49.208Z,7.72
2022-12-04T09:38:19.403Z,7.53
2022-12-04T09:40:59.694Z,7.20
2022-12-04T09:43:45.257Z,7.18
2022-12-04T09:46:36.028Z,8.05
2022-12-04T09:49:16.511Z,10.00
2022-12-04T09:51:49.011Z,8.15
2022-12-04T09:54:23.721Z,7.95
2022-12-04T09:57:13.706Z,8.23
2022-12-04T09:59:41.898Z,7.78
2022-12-04T10:02:39.164Z,8.02
2022-12-04T10:05:23.628Z,8.75
2022-12-04T10:08:08.277Z,7.93
2022-12-04T10:10:46.246Z,8.57
2022-12-04T10:13:54.449Z,9.98
2022-12-04T10:16:39.647Z,9.63
2022-12-04T10:19:16.337Z,9.98
2022-12-04T10:22:37.954Z,9.57
2022-12-04T10:25:15.537Z,8.40
2022-12-04T10:27:47.572Z,9.88
2022-12-04T10:30:18.134Z,8.57
2022-12-04T10:32:49.730Z,9.23
2022-12-04T10:38:36.210Z,9.73
2022-12-04T10:41:44.707Z,9.40
2022-12-04T10:44:20.369Z,10.48
2022-12-04T10:46:58.865Z,11.07
2022-12-04T10:49:33.685Z,10.68
2022-12-04T10:52:04.490Z,9.45
2022-12-04T10:54:54.704Z,10.65
2022-12-04T10:57:21.728Z,11.07
2022-12-04T10:59:53.980Z,11.07
2022-12-04T11:02:35.801Z,10.00
2022-12-04T11:05:34.223Z,10.15
2022-12-04T11:08:05.234Z,10.15
2022-12-04T11:10:47.066Z,11.07
2022-12-04T11:13:33.633Z,9.55
2022-12-04T11:16:01.158Z,10.63
2022-12-04T11:18:52.232Z,12.77
2022-12-04T11:21:35.063Z,14.13
2022-12-04T11:24:19.936Z,10.50
2022-12-04T11:26:54.989Z,10.63
2022-12-04T11:29:31.741Z,10.75
2022-12-04T11:32:09.596Z,10.30
2022-12-04T11:34:42.776Z,10.55
2022-12-04T11:37:40.564Z,10.45
2022-12-04T11:40:21.002Z,10.13
2022-12-04T11:43:06.187Z,11.27
2022-12-04T11:45:48.380Z,10.05
2022-12-04T11:48:18.514Z,10.60
2022-12-04T11:51:29.924Z,10.98
2022-12-04T11:54:08.306Z,11.02
2022-12-04T11:56:43.158Z,11.02
2022-12-04T11:59:36.649Z,10.95
2022-12-04T12:02:18.719Z,11.52
2022-12-04T12:05:09.137Z,10.18
2022-12-04T12:08:03.788Z,11.32
2022-12-04T12:11:13.444Z,10.70
2022-12-04T12:14:17.151Z,11.95
2022-12-04T12:16:58.989Z,11.15
2022-12-04T12:20:15.424Z,11.25
2022-12-04T12:22:53.997Z,10.60
2022-12-04T12:25:52.155Z,10.25
2022-12-04T12:28:42.045Z,11.38
2022-12-04T12:31:50.195Z,12.23
2022-12-04T12:34:52.020Z,11.88
2022-12-04T12:37:37.518Z,11.07
2022-12-04T12:40:16.504Z,11.88
2022-12-04T12:45:41.176Z,11.00
2022-12-04T12:48:47.257Z,11.45
2022-12-04T12:51:44.405Z,14.88
2022-12-04T12:54:50.781Z,11.82
2022-12-04T12:57:41.248Z,11.48
2022-12-04T13:00:14.977Z,11.73
2022-12-04T13:02:57.830Z,12.00
2022-12-04T13:05:41.750Z,11.95
2022-12-04T13:08:39.145Z,13.68
2022-12-04T13:11:19.162Z,12.35
2022-12-04T13:13:59.493Z,12.43
2022-12-04T13:16:51.688Z,11.98
2022-12-04T13:19:32.465Z,11.82
2022-12-04T13:22:37.658Z,11.93
2022-12-04T13:25:05.453Z,12.18
2022-12-04T13:27:45.410Z,12.20
2022-12-04T13:30:31.728Z,13.60
2022-12-04T13:33:27.249Z,12.20
2022-12-04T13:36:23.358Z,11.63
2022-12-04T13:39:01.603Z,12.52
2022-12-04T13:41:41.262Z,12.43
2022-12-04T13:44:27.116Z,12.52
2022-12-04T13:47:06.915Z,13.38
2022-12-04T13:52:08.384Z,13.23
2022-12-04T13:54:42.205Z,11.40
2022-12-04T13:57:18.358Z,12.90
2022-12-04T13:59:48.320Z,12.27
2022-12-04T14:02:28.164Z,13.65
2022-12-04T14:05:06.234Z,14.80
2022-12-04T14:07:39.820Z,13.57
2022-12-04T14:10:23.388Z,14.32
2022-12-04T14:13:00.979Z,13.43
2022-12-04T14:15:31.401Z,15.23
2022-12-04T14:18:13.878Z,15.45
2022-12-04T14:20:42.824Z,14.98
2022-12-04T14:23:17.686Z,13.20
2022-12-04T14:25:45.498Z,14.52
2022-12-04T14:28:27.612Z,14.68
2022-12-04T14:31:04.191Z,15.60
2022-12-04T14:33:33.308Z,15.82
2022-12-04T14:36:05.342Z,15.85
2022-12-04T14:38:32.859Z,13.80
2022-12-04T14:41:01.638Z,13.60
2022-12-04T14:43:39.475Z,14.03
2022-12-04T14:46:15.359Z,14.88
2022-12-04T14:49:00.575Z,14.60
2022-12-04T14:51:36.168Z,13.93
2022-12-04T14:54:27.926Z,12.98
2022-12-04T14:57:24.111Z,14.80
2022-12-04T14:59:55.749Z,36.90
2022-12-04T15:02:43.655Z,16.55
2022-12-04T15:05:12.702Z,13.02
2022-12-04T15:07:47.864Z,12.13
2022-12-04T15:11:08.189Z,13.50
2022-12-04T15:13:44.605Z,14.25
2022-12-04T15:16:21.055Z,12.93
2022-12-04T15:19:02.590Z,14.48
2022-12-04T15:21:41.359Z,13.63
2022-12-04T15:24:19.427Z,13.05
2022-12-04T15:26:50.154Z,13.93
2022-12-04T15:29:26.942Z,13.30
2022-12-04T15:31:57.524Z,15.38
2022-12-04T15:34:31.671Z,14.07
2022-12-04T15:37:07.640Z,13.23
2022-12-04T15:39:38.163Z,13.85
2022-12-04T15:42:20.015Z,14.70
2022-12-04T15:45:03.609Z,14.15
2022-12-04T15:47:38.010Z,14.43
2022-12-04T15:50:15.371Z,13.77
2022-12-04T15:53:16.803Z,14.32
2022-12-04T15:55:49.066Z,14.88
2022-12-04T15:58:30.333Z,13.57
2022-12-04T16:01:10.470Z,13.52
2022-12-04T16:03:43.353Z,12.57
2022-12-04T16:06:22.761Z,13.95
2022-12-04T16:08:58.776Z,14.20
2022-12-04T16:11:38.071Z,14.43
2022-12-04T16:14:07.892Z,15.93
2022-12-04T16:19:10.007Z,14.20
2022-12-04T16:21:37.189Z,13.57
2022-12-04T16:24:05.462Z,13.10
2022-12-04T16:26:34.941Z,13.50
2022-12-04T16:29:01.937Z,14.88
2022-12-04T16:31:28.891Z,13.98
2022-12-04T16:33:56.145Z,15.00
2022-12-04T16:36:22.947Z,14.65
2022-12-04T16:38:50.610Z,14.38
2022-12-04T16:41:21.729Z,13.75
2022-12-04T16:44:01.188Z,15.00
2022-12-04T16:46:32.764Z,13.18
2022-12-04T16:49:05.804Z,13.82
2022-12-04T16:51:37.818Z,14.35
2022-12-04T16:54:08.714Z,13.65
2022-12-04T16:56:35.333Z,13.82
2022-12-04T16:59:01.894Z,14.45
2022-12-04T17:01:36.514Z,16.55
2022-12-04T17:04:03.643Z,15.15
2022-12-04T17:06:33.466Z,14.77
2022-12-04T17:11:26.708Z,13.57
2022-12-04T17:13:53.506Z,14.60
2022-12-04T17:16:24.927Z,15.70
2022-12-04T17:18:53.609Z,16.90
2022-12-04T17:21:23.098Z,13.60
2022-12-04T17:23:49.959Z,15.25
2022-12-04T17:26:16.984Z,15.13
2022-12-04T17:28:43.949Z,14.15
2022-12-04T17:31:19.939Z,15.00
2022-12-04T17:33:46.895Z,14.00
2022-12-04T17:36:20.911Z,14.90
2022-12-04T17:38:47.677Z,14.02
2022-12-04T17:41:15.774Z,13.52
2022-12-04T17:43:47.012Z,13.80
2022-12-04T17:46:19.204Z,15.07
2022-12-04T17:48:52.150Z,13.10
2022-12-04T17:51:25.001Z,13.70
2022-12-04T17:53:52.575Z,14.27
2022-12-04T17:56:26.856Z,17.05
2022-12-04T17:58:59.075Z,12.98
2022-12-04T18:01:43.901Z,14.00
2022-12-04T18:04:10.907Z,14.10
2022-12-04T18:06:44.169Z,14.95
2022-12-04T18:09:14.302Z,14.23
2022-12-04T18:11:45.776Z,14.15
2022-12-04T18:14:15.888Z,14.18
2022-12-04T18:16:46.064Z,14.70
2022-12-04T18:19:14.082Z,14.82
2022-12-04T18:21:41.072Z,14.13
2022-12-04T18:24:08.075Z,13.95
2022-12-04T18:26:41.591Z,13.57
2022-12-04T18:29:10.694Z,13.60
2022-12-04T18:31:40.558Z,14.02
2022-12-04T18:34:08.847Z,13.02
2022-12-04T18:36:40.365Z,13.02
2022-12-04T18:39:13.388Z,13.75
2022-12-04T18:41:40.083Z,15.00
2022-12-04T18:44:10.223Z,14.23
2022-12-04T18:46:39.959Z,13.38
2022-12-04T18:49:09.184Z,14.15
2022-12-04T18:51:39.593Z,13.93
2022-12-04T18:54:18.599Z,14.75
2022-12-04T18:56:46.068Z,15.10
2022-12-04T18:59:18.920Z,13.88
2022-12-04T19:01:49.977Z,15.05
2022-12-04T19:04:20.914Z,14.88
2022-12-04T19:06:52.492Z,14.35
2022-12-04T19:09:40.955Z,14.18
2022-12-04T19:12:11.698Z,14.50
2022-12-04T19:14:39.946Z,14.55
2022-12-04T19:17:09.458Z,14.85
2022-12-04T19:19:38.793Z,14.57
2022-12-04T19:22:05.510Z,13.50
2022-12-04T19:24:32.333Z,16.08
2022-12-04T19:26:59.116Z,15.55
2022-12-04T19:29:25.846Z,14.05
2022-12-04T19:31:57.742Z,14.93
2022-12-04T19:34:30.064Z,14.55
2022-12-04T19:36:59.527Z,15.77
2022-12-04T19:39:26.376Z,15.20
2022-12-04T19:41:55.561Z,16.38
2022-12-04T19:47:09.575Z,15.63
2022-12-04T19:49:36.484Z,13.82
2022-12-04T19:52:03.895Z,13.60
2022-12-04T19:54:31.067Z,14.90
2022-12-04T19:57:01.205Z,14.50
2022-12-04T19:59:37.040Z,14.90
2022-12-04T20:02:05.585Z,14.27
2022-12-04T20:04:35.506Z,15.00
2022-12-04T20:07:05.711Z,14.75
2022-12-04T20:09:32.952Z,14.57
2022-12-04T20:12:10.863Z,14.45
2022-12-04T20:14:37.533Z,15.25
2022-12-04T20:17:05.140Z,13.55
2022-12-04T20:19:32.311Z,14.05
2022-12-04T20:21:59.614Z,14.25
2022-12-04T20:24:29.407Z,14.60
2022-12-04T20:26:58.677Z,14.02
2022-12-04T20:29:25.568Z,15.30
2022-12-04T20:31:52.724Z,14.32
2022-12-04T20:34:19.726Z,15.27
2022-12-04T20:36:47.981Z,15.02
2022-12-04T20:39:20.919Z,15.52
2022-12-04T20:41:47.978Z,14.30
2022-12-04T20:44:18.705Z,14.40
2022-12-04T20:46:51.081Z,13.80
2022-12-04T20:49:22.660Z,15.93
2022-12-04T20:51:53.093Z,15.70
2022-12-04T20:54:24.012Z,16.17
2022-12-04T20:56:54.673Z,15.95
2022-12-04T20:59:23.969Z,14.73
2022-12-04T21:01:59.456Z,15.57
2022-12-04T21:04:29.405Z,15.25
2022-12-04T21:09:24.690Z,14.80
2022-12-04T21:11:55.300Z,15.77
2022-12-04T21:14:44.648Z,15.13
2022-12-04T21:17:18.289Z,15.10
2022-12-04T21:19:50.442Z,14.60
2022-12-04T21:22:21.919Z,14.65
2022-12-04T21:24:51.329Z,16.15
2022-12-04T21:27:21.409Z,16.25
2022-12-04T21:29:49.742Z,14.30
2022-12-04T21:32:17.925Z,15.77
2022-12-04T21:34:45.699Z,15.32
2022-12-04T21:37:12.882Z,14.45
2022-12-04T21:39:47.988Z,15.38
2022-12-04T21:42:35.473Z,16.15
2022-12-04T21:45:08.120Z,14.90
2022-12-04T21:47:42.089Z,16.00
2022-12-04T21:50:11.640Z,14.27
2022-12-04T21:52:41.754Z,17.55
2022-12-04T21:55:09.059Z,15.30
2022-12-04T21:57:42.610Z,15.98
2022-12-04T22:00:13.885Z,16.08
2022-12-04T22:02:43.611Z,14.95
2022-12-04T22:07:40.700Z,14.00
2022-12-04T22:10:11.339Z,15.25
2022-12-04T22:12:49.457Z,14.98
2022-12-04T22:15:17.319Z,15.30
2022-12-04T22:17:44.361Z,14.93
2022-12-04T22:20:11.211Z,15.65
2022-12-04T22:22:38.515Z,16.25
2022-12-04T22:25:08.907Z,15.32
2022-12-04T22:27:37.858Z,15.50
2022-12-04T22:30:08.054Z,19.20
2022-12-04T22:32:34.788Z,16.50
2022-12-04T22:35:01.463Z,16.38
2022-12-04T22:37:31.231Z,17.50
2022-12-04T22:39:59.600Z,18.05
2022-12-04T22:42:26.907Z,16.35
2022-12-04T22:44:53.678Z,15.65
2022-12-04T22:47:22.012Z,16.25
2022-12-04T22:49:49.197Z,15.52
2022-12-04T22:52:16.027Z,15.73
2022-12-04T22:54:43.041Z,15.55
2022-12-04T22:57:10.698Z,18.08
2022-12-04T22:59:39.593Z,17.15
2022-12-04T23:02:06.667Z,15.07
2022-12-04T23:04:35.640Z,16.73
2022-12-04T23:07:03.484Z,17.15
2022-12-04T23:09:33.256Z,17.48
2022-12-04T23:14:30.151Z,14.65
2022-12-04T23:16:57.222Z,16.63
2022-12-04T23:19:24.253Z,15.80
2022-12-04T23:21:56.666Z,16.08
2022-12-04T23:24:24.717Z,15.38
2022-12-04T23:26:51.435Z,16.58
2022-12-04T23:29:44.926Z,15.85
2022-12-04T23:32:04.978Z,18.60
2022-12-04T23:34:31.842Z,16.13
2022-12-04T23:36:58.511Z,17.33
2022-12-04T23:39:25.555Z,17.25
2022-12-04T23:41:52.662Z,16.90
2022-12-04T23:44:19.236Z,16.27
2022-12-04T23:46:45.979Z,17.40
2022-12-04T23:49:12.710Z,16.73
2022-12-04T23:51:39.610Z,17.55
2022-12-04T23:54:06.381Z,17.40
2022-12-04T23:56:33.091Z,16.95
2022-12-04T23:59:01.393Z,17.63
